Time;durP1;ratioP1;P1;durP2;ratioP2;P2;SDS_P1;SDS_P2;PMS_P1;PMS_P2;Temp;Humidity;BMP_temperature;BMP_pressure;BME280_temperature;BME280_humidity;BME280_pressure;Samples;Min_cycle;Max_cycle;Signal;HPM_P1;HPM_P2
2022/10/18 00:01:58;;;;;;;13.18;8.00;;;;;;;8.53;73.65;100417.66;5034128;28;20075;-61
2022/10/18 00:04:24;;;;;;;17.08;7.88;;;;;;;8.56;73.55;100431.66;5035148;28;20071;-61
2022/10/18 00:06:49;;;;;;;11.63;7.10;;;;;;;8.60;73.55;100429.66;5053450;28;20064;-62
2022/10/18 00:09:15;;;;;;;11.75;6.95;;;;;;;8.63;73.52;100415.25;5051759;28;20040;-61
2022/10/18 00:11:41;;;;;;;13.50;7.80;;;;;;;8.67;73.19;100416.78;5053962;28;20115;-61
2022/10/18 00:14:07;;;;;;;10.48;7.07;;;;;;;8.67;73.00;100404.28;5053920;28;20499;-61
2022/10/18 00:16:32;;;;;;;12.70;7.18;;;;;;;8.51;73.01;100377.69;5050757;28;20033;-60
2022/10/18 00:18:57;;;;;;;13.13;6.95;;;;;;;8.70;73.03;100401.44;5053382;28;20435;-59
2022/10/18 00:21:24;;;;;;;11.98;7.07;;;;;;;8.78;72.77;100402.75;5053689;28;20463;-60
2022/10/18 00:23:51;;;;;;;11.68;7.30;;;;;;;8.78;72.71;100392.91;5053578;28;20072;-61
2022/10/18 00:26:19;;;;;;;9.80;6.63;;;;;;;8.69;72.57;100377.50;5036921;28;20456;-61
2022/10/18 00:28:48;;;;;;;10.00;6.43;;;;;;;8.69;72.78;100381.03;5033498;28;20446;-59
2022/10/18 00:31:22;;;;;;;13.95;6.85;;;;;;;8.81;72.39;100386.53;5034681;28;20116;-60
2022/10/18 00:33:52;;;;;;;9.32;6.15;;;;;;;8.87;72.42;100396.81;5033256;28;20029;-61
2022/10/18 00:36:18;;;;;;;11.55;6.65;;;;;;;8.85;72.08;100378.22;5064596;28;20364;-61
2022/10/18 00:38:44;;;;;;;13.43;6.35;;;;;;;8.87;71.86;100378.13;5052107;28;20029;-60
2022/10/18 00:41:20;;;;;;;12.77;7.22;;;;;;;8.92;71.84;100373.31;5068871;28;20084;-61
2022/10/18 00:44:01;;;;;;;9.82;6.95;;;;;;;9.02;71.77;100371.78;5033410;28;20048;-60
2022/10/18 00:46:32;;;;;;;9.55;6.28;;;;;;;9.00;71.41;100370.16;5049466;28;20102;-61
2022/10/18 00:48:59;;;;;;;11.50;6.28;;;;;;;8.98;71.32;100358.72;5051793;28;20507;-60
2022/10/18 00:51:29;;;;;;;9.23;6.07;;;;;;;8.97;70.74;100354.34;5068350;28;20029;-62
2022/10/18 00:53:54;;;;;;;11.38;6.30;;;;;;;8.97;70.78;100357.88;5047483;28;20032;-61
2022/10/18 00:56:20;;;;;;;12.10;6.18;;;;;;;8.96;70.67;100357.97;5031993;28;20085;-63
2022/10/18 00:58:47;;;;;;;12.32;6.32;;;;;;;8.95;70.57;100351.78;5033236;28;20033;-62
2022/10/18 01:01:14;;;;;;;8.80;6.22;;;;;;;8.95;70.30;100351.78;5032636;28;20033;-60
2022/10/18 01:03:40;;;;;;;10.90;6.55;;;;;;;8.90;70.56;100344.06;5032659;28;20489;-60
2022/10/18 01:06:07;;;;;;;12.05;6.20;;;;;;;8.94;70.67;100339.41;5032731;28;20124;-60
2022/10/18 01:09:00;;;;;;;10.95;6.13;;;;;;;9.00;70.46;100341.66;5032063;28;20029;-61
2022/10/18 01:11:25;;;;;;;14.52;5.93;;;;;;;8.89;70.08;100352.16;5032267;28;20080;-61
2022/10/18 01:14:48;;;;;;;11.93;6.45;;;;;;;8.94;70.96;100346.53;5032777;28;20395;-63
2022/10/18 01:17:28;;;;;;;13.82;6.60;;;;;;;8.83;70.75;100347.25;5015959;28;20144;-61
2022/10/18 01:20:24;;;;;;;10.23;6.60;;;;;;;8.82;71.09;100348.19;5042594;28;20033;-62
2022/10/18 01:22:59;;;;;;;8.77;6.18;;;;;;;8.69;70.91;100351.69;5051926;28;20025;-60
2022/10/18 01:25:36;;;;;;;10.73;6.35;;;;;;;8.69;71.12;100353.47;5044189;28;20029;-58
2022/10/18 01:28:22;;;;;;;12.38;6.90;;;;;;;8.64;71.30;100352.91;5032066;28;20116;-60
2022/10/18 01:31:03;;;;;;;11.07;6.53;;;;;;;8.65;71.34;100352.81;5033014;28;20033;-60
2022/10/18 01:33:38;;;;;;;10.27;6.38;;;;;;;8.64;71.46;100345.75;5032198;28;20400;-61
2022/10/18 01:36:20;;;;;;;13.18;6.93;;;;;;;8.64;71.25;100336.91;5032193;28;20029;-60
2022/10/18 01:38:50;;;;;;;8.77;6.03;;;;;;;8.57;71.55;100337.31;5032822;28;20117;-61
2022/10/18 01:41:19;;;;;;;13.63;6.80;;;;;;;8.43;71.33;100302.59;5039493;28;20041;-60
2022/10/18 01:43:49;;;;;;;11.32;6.63;;;;;;;8.64;71.27;100342.25;5051580;28;20037;-61
2022/10/18 01:46:20;;;;;;;10.85;7.10;;;;;;;8.66;70.93;100327.81;5050799;28;20070;-61
2022/10/18 01:48:46;;;;;;;13.38;6.72;;;;;;;8.56;70.80;100302.69;5048616;28;20041;-62
2022/10/18 01:51:12;;;;;;;12.45;7.10;;;;;;;8.74;70.54;100322.84;5031193;28;20037;-58
2022/10/18 01:53:37;;;;;;;12.07;6.93;;;;;;;8.74;70.29;100303.31;5042482;28;20032;-62
2022/10/18 01:56:26;;;;;;;10.00;6.85;;;;;;;8.84;70.40;100312.44;5051119;28;20040;-61
2022/10/18 01:59:00;;;;;;;11.95;6.35;;;;;;;8.90;70.15;100301.34;5026682;28;20379;-61
2022/10/18 02:01:41;;;;;;;12.20;6.72;;;;;;;8.96;70.23;100305.44;5031012;28;20395;-62
2022/10/18 02:04:51;;;;;;;11.82;6.88;;;;;;;8.79;69.87;100285.16;5031635;28;20064;-61
2022/10/18 02:07:26;;;;;;;12.90;6.72;;;;;;;8.99;69.73;100299.00;5010489;28;20057;-61
2022/10/18 02:09:59;;;;;;;;;;;;;;;9.23;69.21;100291.19;4992700;28;20078;-63
2022/10/18 02:12:28;;;;;;;13.10;6.15;;;;;;;9.03;69.14;100292.50;4974319;28;20015;-64
2022/10/18 02:14:56;;;;;;;9.45;6.07;;;;;;;8.98;69.41;100291.97;4990579;28;20093;-62
2022/10/18 02:17:24;;;;;;;10.98;6.75;;;;;;;8.97;69.31;100301.81;5000111;28;20026;-62
2022/10/18 02:19:54;;;;;;;11.77;6.43;;;;;;;8.98;69.55;100292.84;4992524;28;20453;-61
2022/10/18 02:22:25;;;;;;;9.85;6.10;;;;;;;8.96;69.35;100285.88;4990525;28;20104;-61
2022/10/18 02:24:55;;;;;;;12.43;6.53;;;;;;;8.98;69.35;100295.50;4990617;28;20134;-62
2022/10/18 02:27:21;;;;;;;12.00;5.90;;;;;;;8.94;69.25;100288.66;4974844;28;20081;-61
2022/10/18 02:29:46;;;;;;;12.32;6.20;;;;;;;8.93;69.46;100286.06;5007482;28;20046;-61
2022/10/18 02:32:33;;;;;;;9.52;6.03;;;;;;;9.08;69.27;100282.38;5009862;28;20046;-62
2022/10/18 02:35:26;;;;;;;9.82;6.00;;;;;;;9.04;69.15;100275.50;5009974;28;20126;-62
2022/10/18 02:37:52;;;;;;;13.10;6.93;;;;;;;9.02;68.97;100269.44;5020489;28;20099;-61
2022/10/18 02:40:18;;;;;;;9.45;5.80;;;;;;;9.01;69.00;100276.59;5031275;28;20467;-62
2022/10/18 02:42:49;;;;;;;10.43;6.20;;;;;;;9.04;68.92;100260.34;5044455;28;20036;-62
2022/10/18 02:45:15;;;;;;;11.82;6.22;;;;;;;9.00;68.96;100253.53;5051324;28;20036;-61
2022/10/18 02:47:41;;;;;;;11.82;6.28;;;;;;;9.01;68.94;100254.34;5051312;28;20036;-61
2022/10/18 02:50:07;;;;;;;10.23;5.43;;;;;;;9.02;68.68;100259.59;5051026;28;20055;-62
2022/10/18 02:52:32;;;;;;;13.70;6.45;;;;;;;9.01;68.54;100254.34;5050374;28;20136;-62
2022/10/18 02:55:00;;;;;;;11.23;6.63;;;;;;;8.97;68.84;100237.72;5051764;28;20436;-61
2022/10/18 02:57:26;;;;;;;10.40;5.68;;;;;;;8.99;68.94;100241.13;5055024;28;20071;-61
2022/10/18 02:59:51;;;;;;;11.52;6.18;;;;;;;8.96;68.95;100225.31;5037088;28;20134;-62
2022/10/18 03:02:17;;;;;;;11.85;5.90;;;;;;;8.95;68.67;100220.94;5035160;28;20029;-61
2022/10/18 03:04:42;;;;;;;9.77;6.43;;;;;;;8.96;68.74;100221.78;5033799;28;20423;-62
2022/10/18 03:07:08;;;;;;;11.68;5.95;;;;;;;8.92;68.57;100221.13;5035689;28;20495;-62
2022/10/18 03:09:33;;;;;;;12.68;5.97;;;;;;;8.93;68.53;100216.66;5017980;28;20041;-61
2022/10/18 03:11:59;;;;;;;9.50;6.50;;;;;;;8.75;68.54;100196.44;5053544;28;20033;-62
2022/10/18 03:14:24;;;;;;;8.20;5.65;;;;;;;8.90;68.48;100215.91;5040982;28;20113;-59
2022/10/18 03:16:50;;;;;;;10.98;5.53;;;;;;;8.89;68.84;100203.50;5034931;28;20056;-61
2022/10/18 03:19:15;;;;;;;11.68;6.22;;;;;;;8.87;68.68;100196.53;5046038;28;20060;-60
2022/10/18 03:21:40;;;;;;;9.82;5.82;;;;;;;8.90;68.50;100199.00;5054561;28;20400;-58
2022/10/18 03:24:06;;;;;;;12.00;5.88;;;;;;;8.90;68.74;100199.88;5052113;28;20070;-60
2022/10/18 03:26:31;;;;;;;11.77;5.95;;;;;;;8.74;68.35;100157.34;5034892;28;20037;-61
2022/10/18 03:28:57;;;;;;;10.57;6.43;;;;;;;8.93;68.42;100177.47;5043021;28;20029;-60
2022/10/18 03:31:22;;;;;;;9.10;5.70;;;;;;;8.88;68.36;100176.88;5049605;28;20047;-61
2022/10/18 03:33:48;;;;;;;10.18;5.88;;;;;;;8.86;68.63;100176.13;5034643;28;20029;-61
2022/10/18 03:36:13;;;;;;;12.02;6.05;;;;;;;8.81;68.66;100170.25;5034441;28;20090;-60
2022/10/18 03:38:39;;;;;;;11.88;6.60;;;;;;;8.74;69.27;100169.81;5043813;28;20127;-61
2022/10/18 03:41:05;;;;;;;11.20;6.68;;;;;;;8.65;69.13;100152.59;5035350;28;20134;-63
2022/10/18 03:43:30;;;;;;;12.90;6.68;;;;;;;8.57;69.08;100150.47;5034800;28;20041;-66
2022/10/18 03:45:56;;;;;;;9.25;6.05;;;;;;;8.59;69.59;100158.38;5034574;28;20065;-64
2022/10/18 03:48:21;;;;;;;12.65;6.50;;;;;;;8.54;69.44;100155.16;5041082;28;20029;-63
2022/10/18 03:50:47;;;;;;;11.63;6.50;;;;;;;8.51;69.75;100152.69;5052827;28;20360;-62
2022/10/18 03:53:12;;;;;;;10.35;6.47;;;;;;;8.52;69.71;100141.91;5054391;28;20036;-60
2022/10/18 03:55:38;;;;;;;11.75;6.13;;;;;;;8.34;69.66;100101.28;5038979;28;20095;-60
2022/10/18 03:58:04;;;;;;;14.00;6.72;;;;;;;8.47;69.49;100127.97;5037377;28;20028;-60
2022/10/18 04:00:29;;;;;;;10.50;6.10;;;;;;;8.49;69.67;100123.41;5053189;28;20033;-58
2022/10/18 04:02:54;;;;;;;10.80;6.07;;;;;;;8.53;69.73;100126.75;5054120;28;20409;-63
2022/10/18 04:05:22;;;;;;;14.40;6.88;;;;;;;8.47;69.43;100115.50;5053038;28;20612;-62
2022/10/18 04:07:48;;;;;;;12.43;6.22;;;;;;;8.55;69.42;100120.34;5051531;28;20475;-62
2022/10/18 04:10:13;;;;;;;11.02;6.28;;;;;;;8.60;69.30;100120.03;5033579;28;20040;-59
2022/10/18 04:12:39;;;;;;;14.80;7.03;;;;;;;8.66;69.27;100116.09;5034221;28;20065;-60
2022/10/18 04:15:05;;;;;;;11.82;7.00;;;;;;;8.65;69.09;100109.91;5034175;28;20417;-62
2022/10/18 04:17:30;;;;;;;11.00;6.75;;;;;;;8.73;68.88;100114.72;5033742;28;20047;-63
2022/10/18 04:19:56;;;;;;;9.68;6.95;;;;;;;8.76;69.13;100112.72;5052936;28;20037;-59
2022/10/18 04:22:21;;;;;;;14.35;6.95;;;;;;;8.81;69.09;100108.84;5052220;28;20091;-61
2022/10/18 04:24:46;;;;;;;12.38;6.72;;;;;;;8.83;69.08;100102.47;5053898;28;20095;-60
2022/10/18 04:27:12;;;;;;;15.80;7.32;;;;;;;8.89;68.89;100110.03;5050824;28;20291;-61
2022/10/18 04:29:37;;;;;;;12.45;6.80;;;;;;;8.81;68.68;100083.03;5048162;28;20367;-62
2022/10/18 04:32:03;;;;;;;11.32;7.38;;;;;;;8.93;68.46;100097.34;5048306;28;20452;-63
2022/10/18 04:34:28;;;;;;;10.43;6.82;;;;;;;9.01;68.09;100094.97;5053449;28;20033;-63
2022/10/18 04:36:54;;;;;;;12.25;7.50;;;;;;;9.01;68.48;100089.66;5052912;28;20044;-61
2022/10/18 04:39:19;;;;;;;11.80;7.38;;;;;;;9.07;68.15;100092.84;5052158;28;20171;-62
2022/10/18 04:41:45;;;;;;;11.77;7.75;;;;;;;9.10;68.26;100087.28;5052588;28;20124;-62
2022/10/18 04:44:11;;;;;;;11.68;7.97;;;;;;;9.13;68.37;100084.38;5052263;28;20115;-66
2022/10/18 04:46:36;;;;;;;12.85;7.50;;;;;;;9.15;68.07;100082.47;5052094;28;20037;-63
2022/10/18 04:49:02;;;;;;;12.38;7.50;;;;;;;9.20;68.23;100075.00;5048620;28;20053;-64
2022/10/18 04:51:28;;;;;;;11.48;7.55;;;;;;;9.24;68.00;100070.28;5047026;28;20113;-63
2022/10/18 04:53:53;;;;;;;14.05;7.57;;;;;;;9.36;67.51;100074.75;5048665;28;20374;-64
2022/10/18 04:56:19;;;;;;;11.70;7.63;;;;;;;9.44;67.25;100066.19;5031259;28;20431;-65
2022/10/18 04:58:45;;;;;;;13.77;7.93;;;;;;;9.49;66.98;100061.34;5032763;28;20080;-60
2022/10/18 05:01:10;;;;;;;12.45;7.25;;;;;;;9.57;66.87;100058.97;5032837;28;20037;-51
2022/10/18 05:03:36;;;;;;;15.30;7.63;;;;;;;9.65;66.26;100055.75;5034013;28;20025;-60
2022/10/18 05:06:01;;;;;;;16.60;7.53;;;;;;;9.70;66.22;100053.59;5067465;28;20447;-66
2022/10/18 05:08:27;;;;;;;15.00;8.32;;;;;;;9.69;66.15;100059.06;5051129;28;20467;-65
2022/10/18 05:10:53;;;;;;;13.60;7.72;;;;;;;9.76;66.19;100060.31;5051114;28;20039;-66
2022/10/18 05:13:18;;;;;;;16.73;7.47;;;;;;;9.77;65.97;100064.69;5051093;28;20375;-65
2022/10/18 05:15:46;;;;;;;14.38;7.40;;;;;;;9.76;66.50;100061.13;5051497;28;20064;-66
2022/10/18 05:18:11;;;;;;;11.73;7.70;;;;;;;9.63;65.98;100030.94;5051723;28;20047;-65
2022/10/18 05:20:37;;;;;;;14.80;7.38;;;;;;;9.82;66.20;100067.88;5051799;28;20119;-65
2022/10/18 05:23:02;;;;;;;15.68;8.00;;;;;;;9.81;65.85;100062.66;5035218;28;20075;-65
2022/10/18 05:25:28;;;;;;;19.63;8.70;;;;;;;9.86;66.08;100077.38;5050394;28;20064;-65
2022/10/18 05:27:53;;;;;;;13.45;7.55;;;;;;;9.88;65.92;100078.09;5031245;28;20083;-65
2022/10/18 05:30:19;;;;;;;14.00;7.85;;;;;;;9.90;65.74;100078.88;5048079;28;20381;-65
2022/10/18 05:32:45;;;;;;;14.05;8.05;;;;;;;9.89;65.76;100084.31;5032054;28;20037;-65
2022/10/18 05:35:10;;;;;;;11.18;7.82;;;;;;;9.87;65.59;100065.69;5047857;28;20428;-65
2022/10/18 05:37:36;;;;;;;15.40;8.60;;;;;;;9.86;65.81;100074.69;5047647;28;20033;-64
2022/10/18 05:40:01;;;;;;;17.40;8.90;;;;;;;9.72;65.58;100040.94;5031249;28;20349;-65
2022/10/18 05:42:29;;;;;;;11.65;8.32;;;;;;;9.85;66.11;100078.34;5032162;28;20103;-65
2022/10/18 05:44:54;;;;;;;11.60;8.38;;;;;;;9.77;65.99;100062.00;5031393;28;20041;-65
2022/10/18 05:47:20;;;;;;;13.45;8.10;;;;;;;9.79;65.96;100061.91;5032280;28;20416;-66
2022/10/18 05:49:46;;;;;;;16.55;8.85;;;;;;;9.72;65.96;100062.34;5048352;28;20036;-65
2022/10/18 05:52:12;;;;;;;14.60;9.27;;;;;;;9.67;65.98;100066.34;5032145;28;20063;-65
2022/10/18 05:54:37;;;;;;;15.23;9.20;;;;;;;9.56;66.08;100038.56;5031934;28;20037;-69
2022/10/18 05:57:02;;;;;;;15.30;9.10;;;;;;;9.76;66.32;100068.31;5032652;28;20344;-66
2022/10/18 05:59:28;;;;;;;16.30;9.55;;;;;;;9.77;66.00;100064.69;5031582;28;20448;-65
2022/10/18 06:01:53;;;;;;;16.58;10.10;;;;;;;9.26;66.23;99970.34;5031944;28;20025;-65
2022/10/18 06:04:19;;;;;;;14.23;9.32;;;;;;;9.81;66.15;100050.13;5032131;28;20120;-66
2022/10/18 06:06:44;;;;;;;16.90;9.23;;;;;;;9.82;66.38;100043.81;5031010;28;20127;-65
2022/10/18 06:09:10;;;;;;;14.93;9.98;;;;;;;9.85;66.29;100035.53;5032120;28;20037;-65
2022/10/18 06:11:36;;;;;;;18.00;10.13;;;;;;;9.66;66.23;99997.78;5032491;28;20411;-64
2022/10/18 06:14:02;;;;;;;14.98;9.90;;;;;;;9.82;66.37;100018.91;5031958;28;20401;-66
2022/10/18 06:16:27;;;;;;;18.33;10.32;;;;;;;9.63;66.48;99983.66;5031330;28;20069;-66
2022/10/18 06:18:54;;;;;;;18.77;10.60;;;;;;;9.76;66.30;100010.34;5031324;28;20333;-65
2022/10/18 06:21:21;;;;;;;18.17;10.60;;;;;;;9.79;66.72;100014.63;5032265;28;20463;-65
2022/10/18 06:23:57;;;;;;;17.60;10.18;;;;;;;9.75;67.16;100005.13;5014656;28;20037;-66
2022/10/18 06:26:23;;;;;;;18.63;10.57;;;;;;;9.73;66.98;100002.56;5030909;28;20448;-65
2022/10/18 06:28:49;;;;;;;16.23;10.40;;;;;;;9.71;67.18;99982.25;5057635;28;20036;-66
2022/10/18 06:31:15;;;;;;;17.85;10.35;;;;;;;9.73;67.74;99993.69;5051766;28;20115;-67
2022/10/18 06:33:40;;;;;;;18.98;11.20;;;;;;;9.75;67.87;99981.91;5018734;28;20061;-64
2022/10/18 06:36:09;;;;;;;17.55;10.70;;;;;;;9.65;68.36;99943.47;5034924;28;20029;-64
2022/10/18 06:38:35;;;;;;;18.10;11.00;;;;;;;9.62;68.32;99923.16;5035599;28;20479;-63
2022/10/18 06:41:01;;;;;;;19.17;11.18;;;;;;;9.83;67.63;99930.53;5035712;28;20049;-64
2022/10/18 06:43:27;;;;;;;23.65;11.75;;;;;;;9.84;68.01;99932.22;5035886;28;20041;-64
2022/10/18 06:45:53;;;;;;;20.20;11.48;;;;;;;9.84;68.07;99916.19;5035919;28;20120;-64
2022/10/18 06:48:19;;;;;;;17.40;11.60;;;;;;;9.80;68.16;99892.47;5035461;28;20048;-63
2022/10/18 06:51:00;;;;;;;22.30;11.80;;;;;;;9.83;68.76;99874.38;5035489;28;20083;-63
2022/10/18 06:53:27;;;;;;;19.33;11.18;;;;;;;9.78;68.73;99879.22;5036179;28;20120;-64
2022/10/18 06:56:01;;;;;;;17.75;11.43;;;;;;;9.83;69.21;99876.19;5054056;28;20052;-64
2022/10/18 06:58:28;;;;;;;17.55;11.80;;;;;;;9.82;69.15;99896.72;5055143;28;20087;-64
2022/10/18 07:00:54;;;;;;;20.75;12.25;;;;;;;9.84;69.35;99889.44;5039373;28;20037;-63
2022/10/18 07:03:20;;;;;;;19.38;11.68;;;;;;;9.69;69.44;99829.13;5038789;28;20029;-63
2022/10/18 07:05:49;;;;;;;21.48;11.93;;;;;;;9.83;69.36;99852.13;5055226;28;20032;-63
2022/10/18 07:08:16;;;;;;;25.75;11.98;;;;;;;9.75;69.89;99831.34;5055092;28;20040;-64
2022/10/18 07:10:42;;;;;;;28.38;12.70;;;;;;;9.76;69.92;99838.38;5055457;28;20376;-64
2022/10/18 07:13:07;;;;;;;26.60;12.50;;;;;;;9.75;70.31;99810.78;5068490;28;20044;-63
2022/10/18 07:15:33;;;;;;;24.30;11.93;;;;;;;9.74;69.89;99789.53;5036687;28;20436;-64
2022/10/18 07:17:59;;;;;;;30.08;12.68;;;;;;;9.66;70.50;99797.31;5037078;28;20402;-64
2022/10/18 07:20:24;;;;;;;22.10;11.18;;;;;;;9.67;71.10;99793.66;5054865;28;20119;-64
2022/10/18 07:22:54;;;;;;;20.77;11.82;;;;;;;9.67;71.24;99790.97;5039177;28;20063;-62
2022/10/18 07:25:19;;;;;;;19.73;11.55;;;;;;;9.71;70.93;99776.41;5048103;28;20471;-65
2022/10/18 07:27:45;;;;;;;19.85;11.65;;;;;;;9.71;70.64;99766.53;5054414;28;20076;-65
2022/10/18 07:30:10;;;;;;;16.42;10.48;;;;;;;9.75;70.41;99751.13;5053699;28;20065;-66
2022/10/18 07:32:36;;;;;;;18.48;11.15;;;;;;;9.73;70.34;99751.22;5054856;28;20116;-64
2022/10/18 07:35:01;;;;;;;17.73;11.40;;;;;;;9.71;71.07;99722.94;5066759;28;20033;-64
2022/10/18 07:37:29;;;;;;;17.35;10.48;;;;;;;9.76;70.79;99720.75;5051266;28;20124;-67
2022/10/18 07:39:54;;;;;;;18.38;10.68;;;;;;;9.71;71.03;99675.66;5018235;28;20124;-69
2022/10/18 07:42:20;;;;;;;18.50;10.90;;;;;;;9.79;70.86;99683.06;5050437;28;20060;-71
2022/10/18 07:44:45;;;;;;;15.77;10.70;;;;;;;9.87;70.62;99672.59;5045591;28;20046;-71
2022/10/18 07:47:11;;;;;;;16.80;10.70;;;;;;;9.79;70.36;99645.63;5033112;28;20448;-71
2022/10/18 07:49:36;;;;;;;16.10;10.32;;;;;;;9.89;70.21;99651.94;5033024;28;20029;-73
2022/10/18 07:52:02;;;;;;;15.98;10.00;;;;;;;9.91;70.07;99650.00;5049839;28;20029;-71
2022/10/18 07:54:28;;;;;;;21.08;10.23;;;;;;;9.71;69.99;99605.31;5050353;28;20086;-71
2022/10/18 07:56:53;;;;;;;16.50;10.05;;;;;;;9.82;70.48;99613.28;5032701;28;20041;-70
2022/10/18 07:59:18;;;;;;;14.63;9.30;;;;;;;9.87;70.35;99611.09;5033200;28;20123;-70
2022/10/18 08:01:44;;;;;;;15.55;10.15;;;;;;;9.93;70.05;99614.25;5033290;28;20018;-71
2022/10/18 08:04:09;;;;;;;18.15;9.73;;;;;;;9.79;70.79;99585.97;5033645;28;20029;-71
2022/10/18 08:06:35;;;;;;;15.18;10.18;;;;;;;9.83;70.77;99576.72;5050809;28;20033;-67
2022/10/18 08:09:00;;;;;;;17.35;9.77;;;;;;;9.79;70.37;99576.13;5048173;28;20477;-69
2022/10/18 08:11:26;;;;;;;19.13;10.45;;;;;;;9.77;71.19;99567.38;5035916;28;20047;-67
2022/10/18 08:13:52;;;;;;;20.10;10.77;;;;;;;9.74;71.32;99570.28;5053252;28;20029;-67
2022/10/18 08:16:26;;;;;;;18.75;10.23;;;;;;;9.69;71.04;99535.06;5052646;28;20416;-69
2022/10/18 08:18:51;;;;;;;18.65;10.45;;;;;;;9.70;71.19;99513.53;5054117;28;20116;-66
2022/10/18 08:21:18;;;;;;;18.40;10.25;;;;;;;9.69;71.29;99501.16;5033274;28;20120;-68
2022/10/18 08:23:44;;;;;;;15.00;9.93;;;;;;;9.69;71.68;99492.31;5053716;28;20036;-67
2022/10/18 08:26:13;;;;;;;20.05;10.65;;;;;;;9.53;71.64;99437.44;5052444;28;20031;-68
2022/10/18 08:28:39;;;;;;;19.17;10.80;;;;;;;9.79;71.38;99428.22;5039346;28;20039;-67
2022/10/18 08:31:07;;;;;;;18.50;11.18;;;;;;;9.72;71.69;99377.94;5042608;28;20367;-67
2022/10/18 08:33:34;;;;;;;20.92;12.60;;;;;;;9.69;72.31;99364.81;5058174;28;20049;-71
2022/10/18 08:36:04;;;;;;;21.80;11.43;;;;;;;9.78;71.34;99379.25;5039027;28;20033;-71
2022/10/18 08:38:31;;;;;;;19.67;12.77;;;;;;;9.67;71.96;99363.28;5047367;28;20060;-72
2022/10/18 08:41:23;;;;;;;23.20;12.68;;;;;;;9.54;71.53;99299.31;5051154;28;20053;-71
2022/10/18 08:44:12;;;;;;;23.48;12.77;;;;;;;9.62;72.10;99307.53;5043365;28;20494;-71
2022/10/18 08:46:43;;;;;;;25.52;13.88;;;;;;;9.45;73.00;99282.25;5047057;28;20122;-63
2022/10/18 08:49:27;;;;;;;21.17;12.80;;;;;;;9.50;73.12;99277.34;5033557;28;20017;-68
2022/10/18 08:51:55;;;;;;;21.20;12.98;;;;;;;9.32;73.21;99269.91;5015652;28;20373;-69
2022/10/18 08:54:48;;;;;;;22.42;12.25;;;;;;;9.31;73.45;99278.06;5067946;28;20430;-66
2022/10/18 08:57:16;;;;;;;21.70;12.75;;;;;;;9.02;74.46;99258.16;5048837;28;20037;-65
2022/10/18 08:59:43;;;;;;;23.95;13.73;;;;;;;9.10;75.27;99296.72;5041064;28;20479;-67
2022/10/18 09:02:33;;;;;;;20.67;12.32;;;;;;;9.24;75.48;99322.28;5032044;28;20060;-68
2022/10/18 09:05:28;;;;;;;22.00;12.27;;;;;;;9.38;74.25;99284.59;5033390;28;20040;-65
2022/10/18 09:08:17;;;;;;;20.42;12.45;;;;;;;9.31;75.06;99337.69;5049507;28;20056;-64
2022/10/18 09:11:09;;;;;;;20.10;12.82;;;;;;;9.28;75.92;99329.91;5032973;28;20460;-65
2022/10/18 09:13:54;;;;;;;22.50;12.15;;;;;;;9.29;76.94;99317.44;5032614;28;20034;-65
2022/10/18 09:16:46;;;;;;;17.70;11.50;;;;;;;9.33;76.48;99303.66;5032217;28;20317;-64
2022/10/18 09:19:17;;;;;;;18.17;12.13;;;;;;;9.36;76.22;99302.56;5031834;28;20473;-64
2022/10/18 09:21:54;;;;;;;16.50;10.93;;;;;;;9.44;76.54;99309.94;5033025;28;20025;-64
2022/10/18 09:24:39;;;;;;;19.70;12.27;;;;;;;9.46;76.47;99287.44;5048421;28;20037;-64
2022/10/18 09:27:13;;;;;;;18.20;11.82;;;;;;;9.50;76.55;99279.16;5048181;28;20112;-65
2022/10/18 09:30:01;;;;;;;18.98;11.48;;;;;;;9.57;77.07;99272.34;5032882;28;20057;-65
2022/10/18 09:32:53;;;;;;;17.23;10.18;;;;;;;9.66;77.46;99255.50;5032385;28;20564;-64
2022/10/18 09:35:23;;;;;;;15.98;10.40;;;;;;;9.67;76.88;99235.81;5031725;28;20030;-64
2022/10/18 09:37:50;;;;;;;15.55;10.68;;;;;;;9.68;76.52;99253.53;5032860;28;20033;-64
2022/10/18 09:40:25;;;;;;;17.42;9.90;;;;;;;9.73;76.77;99239.78;5032913;28;20468;-64
2022/10/18 09:42:54;;;;;;;17.55;10.55;;;;;;;9.71;77.01;99236.41;5032316;28;20480;-66
2022/10/18 09:45:28;;;;;;;22.10;10.75;;;;;;;9.80;77.36;99240.94;5048132;28;20041;-65
2022/10/18 09:48:20;;;;;;;15.65;9.60;;;;;;;9.94;77.79;99225.53;5032500;28;20123;-64
2022/10/18 09:50:57;;;;;;;14.13;9.48;;;;;;;10.00;77.88;99235.69;5032827;28;20048;-64
2022/10/18 09:53:39;;;;;;;13.07;8.30;;;;;;;10.04;77.50;99211.22;5032107;28;20127;-65
2022/10/18 09:56:11;;;;;;;14.10;8.65;;;;;;;10.11;77.48;99206.13;5031228;28;20368;-65
2022/10/18 09:58:45;;;;;;;12.75;8.00;;;;;;;10.13;77.29;99209.56;5032335;28;20079;-65
2022/10/18 10:01:14;;;;;;;12.57;8.35;;;;;;;10.23;77.78;99201.53;5031423;28;20095;-65
2022/10/18 10:03:40;;;;;;;15.80;9.38;;;;;;;10.27;77.61;99192.25;5031855;28;20117;-64
2022/10/18 10:06:13;;;;;;;14.90;8.90;;;;;;;10.38;77.82;99185.94;5035264;28;20022;-65
2022/10/18 10:08:47;;;;;;;13.57;8.90;;;;;;;10.44;77.37;99184.56;5036761;28;20041;-66
2022/10/18 10:11:32;;;;;;;14.68;8.85;;;;;;;10.55;77.31;99172.88;5035136;28;20045;-65
2022/10/18 10:14:24;;;;;;;12.98;8.65;;;;;;;10.61;77.33;99161.63;5036000;28;20050;-64
2022/10/18 10:17:04;;;;;;;12.25;7.93;;;;;;;10.64;77.27;99156.00;5033579;28;20482;-65
2022/10/18 10:19:52;;;;;;;13.55;8.52;;;;;;;10.69;77.15;99156.41;5035920;28;20460;-65
2022/10/18 10:22:26;;;;;;;12.75;8.65;;;;;;;10.76;77.30;99157.53;5034978;28;20044;-64
2022/10/18 10:24:53;;;;;;;13.05;8.45;;;;;;;10.77;77.41;99148.50;5035841;28;20033;-65
2022/10/18 10:27:26;;;;;;;13.73;9.15;;;;;;;10.75;77.32;99126.38;5035785;28;20033;-64
2022/10/18 10:29:55;;;;;;;13.95;9.02;;;;;;;10.84;77.60;99126.50;5035146;28;20052;-65
2022/10/18 10:32:23;;;;;;;17.15;9.32;;;;;;;10.85;77.20;99139.78;5035275;28;20445;-66
2022/10/18 10:34:50;;;;;;;14.27;8.77;;;;;;;10.89;77.56;99129.63;5036000;28;20079;-65
2022/10/18 10:37:26;;;;;;;15.30;9.48;;;;;;;11.03;77.44;99133.69;5051435;28;20060;-66
2022/10/18 10:40:16;;;;;;;10.63;8.75;;;;;;;11.15;77.85;99129.00;5035291;28;20529;-64
2022/10/18 10:43:09;;;;;;;10.73;8.63;;;;;;;11.21;77.70;99123.06;5036187;28;20095;-65
2022/10/18 10:45:40;;;;;;;11.77;9.20;;;;;;;11.18;77.30;99124.19;5051139;28;20089;-64
2022/10/18 10:48:12;;;;;;;9.95;7.97;;;;;;;11.22;77.74;99119.41;5034364;28;20034;-64
2022/10/18 10:51:00;;;;;;;11.85;8.63;;;;;;;11.39;77.78;99119.63;5035798;28;20029;-65
2022/10/18 10:53:27;;;;;;;11.32;8.77;;;;;;;11.38;77.74;99101.88;5035689;28;20113;-66
2022/10/18 10:55:57;;;;;;;11.63;8.57;;;;;;;11.45;77.62;99108.31;5035669;28;20041;-66
2022/10/18 10:58:25;;;;;;;14.45;8.82;;;;;;;11.34;77.40;99091.44;5035863;28;20040;-65
2022/10/18 11:00:50;;;;;;;11.65;9.45;;;;;;;11.47;77.47;99100.97;5051541;28;20037;-65
2022/10/18 11:03:22;;;;;;;12.55;8.57;;;;;;;11.55;77.92;99089.50;5035090;28;20048;-65
2022/10/18 11:05:54;;;;;;;12.60;9.63;;;;;;;11.63;77.67;99086.91;5035433;28;20033;-65
2022/10/18 11:08:24;;;;;;;12.88;9.60;;;;;;;11.68;77.92;99068.53;5035360;28;20376;-65
2022/10/18 11:11:10;;;;;;;13.82;9.65;;;;;;;11.80;77.90;99066.50;5035425;28;20337;-64
2022/10/18 11:13:49;;;;;;;12.50;9.38;;;;;;;11.94;78.03;99062.47;5035342;28;20372;-65
2022/10/18 11:16:58;;;;;;;12.93;9.93;;;;;;;12.15;77.94;99066.72;5034457;28;20051;-65
2022/10/18 11:19:54;;;;;;;13.35;10.25;;;;;;;12.29;77.54;99062.66;5003971;28;20044;-66
2022/10/18 11:22:23;;;;;;;14.43;9.18;;;;;;;12.28;77.52;99066.34;5034767;28;20055;-65
2022/10/18 11:24:48;;;;;;;12.45;9.77;;;;;;;12.26;77.96;99055.78;5033871;28;20029;-66
2022/10/18 11:27:51;;;;;;;15.13;10.55;;;;;;;12.30;77.72;99037.53;5054692;28;20616;-64
2022/10/18 11:30:34;;;;;;;13.80;9.85;;;;;;;12.46;77.66;99072.53;5034650;28;20069;-65
2022/10/18 11:33:22;;;;;;;15.15;10.93;;;;;;;12.52;77.75;99071.09;5033901;28;20087;-68
2022/10/18 11:36:06;;;;;;;11.90;10.43;;;;;;;12.56;77.80;99056.34;5034174;28;20033;-65
2022/10/18 11:38:50;;;;;;;14.27;10.30;;;;;;;12.66;77.92;99064.31;5017106;28;20509;-64
2022/10/18 11:41:31;;;;;;;16.02;10.48;;;;;;;12.57;77.88;99043.78;5033602;28;20049;-66
2022/10/18 11:44:03;;;;;;;16.70;10.43;;;;;;;12.60;77.84;99040.78;5018903;28;20045;-65